Time;durP1;ratioP1;P1;durP2;ratioP2;P2;SDS_P1;SDS_P2;PMS_P1;PMS_P2;Temp;Humidity;BMP_temperature;BMP_pressure;BME280_temperature;BME280_humidity;BME280_pressure;Samples;Min_cycle;Max_cycle;Signal;HPM_P1;HPM_P2
2021/12/10 00:01:34;;;;;;;18.95;9.98;;;;;;;;;;4997185;28;94282;-76
2021/12/10 00:04:01;;;;;;;28.05;11.23;;;;;;;;;;4993099;28;92427;-76
2021/12/10 00:06:38;;;;;;;21.60;10.77;;;;;;;;;;5009072;28;93435;-76
2021/12/10 00:09:07;;;;;;;22.77;10.73;;;;;;;;;;5011830;28;93797;-76
2021/12/10 00:11:37;;;;;;;22.88;10.23;;;;;;;;;;5002351;28;92238;-76
2021/12/10 00:14:05;;;;;;;34.28;11.00;;;;;;;;;;4996185;28;93434;-75
2021/12/10 00:16:32;;;;;;;23.98;10.48;;;;;;;;;;5010516;28;92494;-76
2021/12/10 00:19:15;;;;;;;16.30;9.93;;;;;;;;;;5010808;28;95721;-75
2021/12/10 00:21:42;;;;;;;22.60;10.70;;;;;;;;;;4997264;28;93502;-75
2021/12/10 00:24:09;;;;;;;24.02;10.65;;;;;;;;;;4993760;28;93640;-75
2021/12/10 00:26:36;;;;;;;18.10;10.13;;;;;;;;;;5003559;28;94056;-75
2021/12/10 00:29:04;;;;;;;23.55;11.45;;;;;;;;;;5002164;28;95047;-75
2021/12/10 00:31:45;;;;;;;19.60;10.25;;;;;;;;;;4996562;28;92621;-75
2021/12/10 00:34:12;;;;;;;18.52;9.52;;;;;;;;;;5015863;28;93159;-75
2021/12/10 00:36:38;;;;;;;21.70;10.70;;;;;;;;;;5012327;28;91726;-75
2021/12/10 00:39:10;;;;;;;16.17;10.05;;;;;;;;;;5012312;28;92593;-75
2021/12/10 00:41:37;;;;;;;20.73;10.15;;;;;;;;;;5007200;28;94285;-75
2021/12/10 00:44:04;;;;;;;24.60;11.55;;;;;;;;;;4994821;28;97421;-75
2021/12/10 00:46:30;;;;;;;20.27;11.40;;;;;;;;;;4994803;28;96289;-75
2021/12/10 00:48:56;;;;;;;21.00;11.40;;;;;;;;;;4992371;28;95073;-75
2021/12/10 00:51:23;;;;;;;20.98;11.77;;;;;;;;;;4998174;28;92855;-75
2021/12/10 00:53:49;;;;;;;16.60;10.02;;;;;;;;;;5014246;28;93358;-75
2021/12/10 00:56:16;;;;;;;26.27;11.75;;;;;;;;;;5011809;28;92909;-75
2021/12/10 00:58:42;;;;;;;20.90;11.70;;;;;;;;;;5006440;28;93971;-75
2021/12/10 01:01:12;;;;;;;19.70;11.60;;;;;;;;;;4997821;28;92748;-75
2021/12/10 01:03:41;;;;;;;19.83;11.93;;;;;;;;;;5011767;28;92579;-75
2021/12/10 01:06:09;;;;;;;20.58;10.57;;;;;;;;;;5010699;28;93458;-75
2021/12/10 01:08:36;;;;;;;17.92;10.50;;;;;;;;;;5005364;28;95417;-75
2021/12/10 01:11:06;;;;;;;13.95;10.80;;;;;;;;;;5010700;28;92459;-75
2021/12/10 01:13:34;;;;;;;20.40;11.88;;;;;;;;;;5002577;28;94913;-74
2021/12/10 01:24:52;;;;;;;23.20;12.48;;;;;;;;;;5010704;28;93957;-75
2021/12/10 01:27:10;;;;;;;24.70;11.10;;;;;;;;;;4970722;28;94429;-75
2021/12/10 01:29:39;;;;;;;19.10;10.18;;;;;;;;;;4978072;28;93469;-74
2021/12/10 01:32:07;;;;;;;21.20;11.05;;;;;;;;;;4996748;28;93444;-75
2021/12/10 01:34:34;;;;;;;21.85;12.55;;;;;;;;;;5006515;28;95688;-74
2021/12/10 01:37:02;;;;;;;20.67;11.48;;;;;;;;;;5002987;28;94499;-75
2021/12/10 01:39:29;;;;;;;16.85;11.65;;;;;;;;;;4974575;28;92987;-75
2021/12/10 01:42:03;;;;;;;18.17;10.35;;;;;;;;;;4972323;28;94260;-75
2021/12/10 01:44:32;;;;;;;16.17;9.95;;;;;;;;;;5007762;28;93753;-75
2021/12/10 01:47:00;;;;;;;15.15;10.48;;;;;;;;;;5001122;28;94102;-74
2021/12/10 01:49:27;;;;;;;18.85;11.00;;;;;;;;;;5008252;28;94438;-75
2021/12/10 01:51:54;;;;;;;13.93;10.75;;;;;;;;;;5011736;28;91750;-75
2021/12/10 01:54:31;;;;;;;16.77;10.23;;;;;;;;;;4998899;28;92756;-75
2021/12/10 01:56:59;;;;;;;15.68;11.20;;;;;;;;;;5005155;28;94223;-75
2021/12/10 01:59:27;;;;;;;15.38;10.35;;;;;;;;;;5007574;28;94926;-75
2021/12/10 02:01:56;;;;;;;16.98;10.80;;;;;;;;;;5006398;28;98080;-75
2021/12/10 02:04:24;;;;;;;13.68;10.15;;;;;;;;;;4997217;28;93034;-75
2021/12/10 02:06:51;;;;;;;21.23;10.68;;;;;;;;;;5009841;28;94452;-75
2021/12/10 02:09:17;;;;;;;22.65;10.43;;;;;;;;;;5006429;28;94172;-75
2021/12/10 02:11:44;;;;;;;22.88;10.88;;;;;;;;;;5009059;28;92921;-75
2021/12/10 02:14:11;;;;;;;13.15;10.23;;;;;;;;;;5004913;28;94382;-75
2021/12/10 02:16:38;;;;;;;18.25;10.60;;;;;;;;;;5010337;28;93558;-75
2021/12/10 02:19:06;;;;;;;15.68;10.30;;;;;;;;;;5000715;28;93844;-75
2021/12/10 02:21:34;;;;;;;20.40;10.43;;;;;;;;;;4971184;28;93982;-75
2021/12/10 02:24:01;;;;;;;18.02;11.02;;;;;;;;;;4998326;28;96039;-75
2021/12/10 02:26:32;;;;;;;25.40;11.57;;;;;;;;;;5011164;28;95500;-75
2021/12/10 02:28:59;;;;;;;18.70;10.25;;;;;;;;;;5009471;28;94232;-75
2021/12/10 02:31:25;;;;;;;20.15;10.98;;;;;;;;;;5006714;28;92450;-74
2021/12/10 02:33:52;;;;;;;19.10;11.38;;;;;;;;;;4992648;28;94527;-75
2021/12/10 02:36:18;;;;;;;14.23;10.88;;;;;;;;;;5003509;28;93755;-75
2021/12/10 02:38:46;;;;;;;16.92;11.15;;;;;;;;;;5003657;27;92956;-75
2021/12/10 02:41:13;;;;;;;16.35;9.73;;;;;;;;;;5005977;28;93983;-75
2021/12/10 02:43:40;;;;;;;24.40;10.88;;;;;;;;;;5002760;28;94101;-75
2021/12/10 02:46:06;;;;;;;17.65;10.23;;;;;;;;;;5007622;28;92815;-75
2021/12/10 02:48:33;;;;;;;16.02;9.77;;;;;;;;;;4987011;28;96790;-75
2021/12/10 02:51:00;;;;;;;14.48;10.32;;;;;;;;;;5002136;28;94051;-75
2021/12/10 02:53:29;;;;;;;16.65;9.60;;;;;;;;;;5010241;28;93940;-75
2021/12/10 02:55:57;;;;;;;16.40;9.85;;;;;;;;;;5009994;28;93666;-75
2021/12/10 02:58:23;;;;;;;15.60;9.73;;;;;;;;;;5001180;28;93244;-75
2021/12/10 03:00:56;;;;;;;11.80;8.90;;;;;;;;;;4998574;28;93990;-75
2021/12/10 03:03:22;;;;;;;14.07;9.80;;;;;;;;;;4998968;28;94329;-75
2021/12/10 03:05:49;;;;;;;24.40;10.23;;;;;;;;;;5008631;28;92722;-75
2021/12/10 03:08:15;;;;;;;13.77;9.38;;;;;;;;;;4998509;28;94649;-75
2021/12/10 03:10:42;;;;;;;13.85;8.23;;;;;;;;;;5013188;28;94369;-75
2021/12/10 03:13:09;;;;;;;13.82;7.82;;;;;;;;;;5013657;28;94865;-75
2021/12/10 03:15:36;;;;;;;19.08;9.40;;;;;;;;;;5009072;28;94234;-75
2021/12/10 03:18:04;;;;;;;12.05;7.93;;;;;;;;;;5002237;28;94067;-75
2021/12/10 03:20:31;;;;;;;12.05;6.72;;;;;;;;;;4991937;28;94917;-75
2021/12/10 03:22:58;;;;;;;14.73;7.45;;;;;;;;;;4999689;28;94295;-75
2021/12/10 03:25:26;;;;;;;14.35;9.52;;;;;;;;;;5013178;28;92480;-75
2021/12/10 03:27:52;;;;;;;9.45;6.07;;;;;;;;;;5004684;28;94275;-75
2021/12/10 03:30:21;;;;;;;11.95;6.13;;;;;;;;;;5004481;28;94044;-75
2021/12/10 03:32:48;;;;;;;6.80;5.43;;;;;;;;;;4995121;28;93312;-75
2021/12/10 03:35:28;;;;;;;9.00;5.90;;;;;;;;;;4995600;28;94447;-74
2021/12/10 03:37:55;;;;;;;15.10;6.50;;;;;;;;;;5006820;28;95050;-74
2021/12/10 03:40:21;;;;;;;14.70;5.63;;;;;;;;;;5006118;28;96719;-74
2021/12/10 03:42:48;;;;;;;7.05;5.50;;;;;;;;;;5009217;28;94325;-74
2021/12/10 03:45:18;;;;;;;7.13;5.35;;;;;;;;;;5002059;28;94298;-74
2021/12/10 03:47:45;;;;;;;5.28;4.70;;;;;;;;;;5010952;28;94728;-74
2021/12/10 03:50:11;;;;;;;10.93;5.43;;;;;;;;;;5005417;28;93640;-74
2021/12/10 03:52:38;;;;;;;15.40;5.07;;;;;;;;;;4993816;28;93948;-74
2021/12/10 03:55:05;;;;;;;8.65;4.63;;;;;;;;;;5005103;28;92953;-74
2021/12/10 03:57:32;;;;;;;9.88;5.25;;;;;;;;;;4998197;27;92704;-74
2021/12/10 03:59:59;;;;;;;17.27;5.30;;;;;;;;;;5012329;28;93817;-74
2021/12/10 04:02:26;;;;;;;12.68;5.32;;;;;;;;;;5006061;28;96446;-74
2021/12/10 04:04:52;;;;;;;11.18;4.55;;;;;;;;;;5004377;28;92602;-74
2021/12/10 04:07:21;;;;;;;11.43;5.05;;;;;;;;;;5009740;28;94005;-75
2021/12/10 04:09:48;;;;;;;13.73;4.32;;;;;;;;;;4983162;28;94282;-75
2021/12/10 04:12:14;;;;;;;5.05;3.50;;;;;;;;;;5004861;28;94083;-75
2021/12/10 04:14:41;;;;;;;9.98;4.30;;;;;;;;;;5012461;28;93753;-75
2021/12/10 04:17:08;;;;;;;11.13;4.53;;;;;;;;;;5007875;28;92501;-75
2021/12/10 04:19:36;;;;;;;14.95;5.55;;;;;;;;;;4994260;28;93111;-75
2021/12/10 04:22:04;;;;;;;9.45;5.95;;;;;;;;;;4994167;28;93746;-75
2021/12/10 04:24:32;;;;;;;10.32;4.97;;;;;;;;;;5011867;28;92639;-75
2021/12/10 04:27:00;;;;;;;7.63;4.65;;;;;;;;;;4999953;28;95381;-74
2021/12/10 04:29:26;;;;;;;9.18;4.53;;;;;;;;;;5013563;28;94389;-74
2021/12/10 04:31:54;;;;;;;12.52;5.57;;;;;;;;;;5012249;28;93889;-74
2021/12/10 04:34:21;;;;;;;10.07;4.40;;;;;;;;;;5016276;28;93525;-74
2021/12/10 04:36:52;;;;;;;7.88;3.67;;;;;;;;;;5008248;28;94177;-74
2021/12/10 04:39:18;;;;;;;14.70;5.07;;;;;;;;;;5009778;28;94183;-74
2021/12/10 04:41:44;;;;;;;7.43;4.68;;;;;;;;;;5001186;28;93347;-74
2021/12/10 04:44:11;;;;;;;8.32;4.97;;;;;;;;;;4994793;28;92369;-74
2021/12/10 04:46:38;;;;;;;13.32;5.15;;;;;;;;;;5005217;28;93632;-74
2021/12/10 04:49:06;;;;;;;16.30;5.70;;;;;;;;;;5013060;28;94377;-74
2021/12/10 04:51:36;;;;;;;12.05;6.10;;;;;;;;;;5009998;28;94898;-74
2021/12/10 04:54:03;;;;;;;12.10;4.63;;;;;;;;;;5016473;28;96774;-74
2021/12/10 04:56:30;;;;;;;5.90;4.53;;;;;;;;;;5006248;28;92431;-74
2021/12/10 04:58:57;;;;;;;9.75;4.65;;;;;;;;;;5006601;28;93940;-74
2021/12/10 05:01:23;;;;;;;9.27;4.80;;;;;;;;;;5009642;28;93448;-74
2021/12/10 05:03:50;;;;;;;9.45;4.10;;;;;;;;;;5011925;28;93400;-74
2021/12/10 05:06:17;;;;;;;12.32;4.55;;;;;;;;;;4973504;28;93972;-74
2021/12/10 05:08:43;;;;;;;10.48;4.90;;;;;;;;;;5011275;27;93538;-74
2021/12/10 05:11:10;;;;;;;8.60;5.68;;;;;;;;;;4995090;28;92426;-74
2021/12/10 05:13:37;;;;;;;11.95;5.07;;;;;;;;;;5009994;28;94084;-73
2021/12/10 05:16:04;;;;;;;6.05;4.60;;;;;;;;;;5001225;28;97067;-74
2021/12/10 05:18:33;;;;;;;4.72;4.32;;;;;;;;;;5000846;28;95615;-74
2021/12/10 05:20:59;;;;;;;7.57;4.80;;;;;;;;;;5008508;28;93498;-73
2021/12/10 05:23:26;;;;;;;8.18;3.90;;;;;;;;;;5012207;28;92421;-74
2021/12/10 05:25:52;;;;;;;11.15;5.05;;;;;;;;;;4996374;28;93910;-74
2021/12/10 05:28:18;;;;;;;7.85;4.45;;;;;;;;;;5003128;28;94469;-74
2021/12/10 05:30:45;;;;;;;6.50;4.43;;;;;;;;;;5005391;28;92493;-73
2021/12/10 05:33:16;;;;;;;6.38;4.40;;;;;;;;;;5001702;28;93931;-75
2021/12/10 05:35:43;;;;;;;8.82;4.30;;;;;;;;;;5012732;28;94236;-73
2021/12/10 05:38:10;;;;;;;8.82;3.80;;;;;;;;;;5005402;28;92506;-74
2021/12/10 05:40:36;;;;;;;7.97;4.15;;;;;;;;;;5003722;28;96636;-74
2021/12/10 05:43:03;;;;;;;10.18;4.53;;;;;;;;;;5010643;28;92532;-74
2021/12/10 05:45:31;;;;;;;4.82;2.60;;;;;;;;;;5012225;28;94690;-75
2021/12/10 05:47:58;;;;;;;11.40;4.00;;;;;;;;;;4993603;28;93969;-74
2021/12/10 05:50:25;;;;;;;5.45;4.10;;;;;;;;;;4992781;28;92611;-74
2021/12/10 05:52:52;;;;;;;5.55;4.20;;;;;;;;;;4999559;28;94180;-74
2021/12/10 05:55:19;;;;;;;13.13;5.10;;;;;;;;;;4994908;28;93750;-74
2021/12/10 05:57:45;;;;;;;11.45;5.03;;;;;;;;;;5007650;28;91873;-74
2021/12/10 06:00:14;;;;;;;7.13;4.03;;;;;;;;;;5014274;28;93946;-75
2021/12/10 06:02:41;;;;;;;4.28;3.40;;;;;;;;;;5005030;28;93012;-74
2021/12/10 06:05:08;;;;;;;8.18;4.20;;;;;;;;;;4998145;28;95004;-73
2021/12/10 06:07:35;;;;;;;8.90;4.10;;;;;;;;;;5012028;28;94783;-73
2021/12/10 06:10:02;;;;;;;9.32;4.43;;;;;;;;;;4995332;28;94228;-73
2021/12/10 06:12:29;;;;;;;7.95;4.05;;;;;;;;;;4984089;28;93969;-74
2021/12/10 06:14:56;;;;;;;6.75;4.40;;;;;;;;;;5004380;28;93356;-74
2021/12/10 06:17:22;;;;;;;10.45;4.10;;;;;;;;;;4997303;28;94046;-74
2021/12/10 06:19:48;;;;;;;7.65;5.45;;;;;;;;;;4999010;28;94586;-74
2021/12/10 06:22:15;;;;;;;11.20;4.53;;;;;;;;;;5015935;28;92927;-74
2021/12/10 06:24:41;;;;;;;10.65;3.60;;;;;;;;;;4997870;28;93063;-74
2021/12/10 06:27:08;;;;;;;15.48;4.03;;;;;;;;;;5010328;28;94544;-74
2021/12/10 06:29:36;;;;;;;6.38;3.50;;;;;;;;;;5008707;28;94889;-74
2021/12/10 06:32:02;;;;;;;8.98;3.67;;;;;;;;;;5012078;28;96463;-74
2021/12/10 06:34:29;;;;;;;5.80;4.07;;;;;;;;;;5005858;28;94849;-73
2021/12/10 06:36:55;;;;;;;3.63;2.83;;;;;;;;;;4999877;28;93750;-74
2021/12/10 06:39:22;;;;;;;11.32;4.40;;;;;;;;;;4998536;28;93733;-74
2021/12/10 06:41:49;;;;;;;15.80;4.00;;;;;;;;;;5018395;28;94067;-74
2021/12/10 06:44:16;;;;;;;9.05;4.60;;;;;;;;;;5018906;28;93408;-74
2021/12/10 06:46:42;;;;;;;8.05;4.43;;;;;;;;;;5019140;28;94176;-74
2021/12/10 06:49:09;;;;;;;14.85;4.70;;;;;;;;;;5015085;28;92627;-74
2021/12/10 06:51:35;;;;;;;11.05;3.88;;;;;;;;;;5005346;28;94382;-74
2021/12/10 06:54:02;;;;;;;8.93;4.50;;;;;;;;;;4996694;28;96738;-74
2021/12/10 06:56:29;;;;;;;7.65;4.82;;;;;;;;;;4996538;28;92427;-74
2021/12/10 06:58:55;;;;;;;13.85;4.95;;;;;;;;;;4996847;28;94107;-74
2021/12/10 07:01:25;;;;;;;7.47;3.72;;;;;;;;;;5009382;28;97245;-73
2021/12/10 07:03:56;;;;;;;11.73;4.15;;;;;;;;;;5018756;28;92515;-74
2021/12/10 07:06:24;;;;;;;11.68;4.78;;;;;;;;;;5005771;28;93551;-75
2021/12/10 07:08:51;;;;;;;7.65;4.70;;;;;;;;;;5012669;28;92473;-74
2021/12/10 07:11:19;;;;;;;7.18;4.47;;;;;;;;;;5001211;28;91895;-74
2021/12/10 07:13:53;;;;;;;12.15;4.97;;;;;;;;;;5000581;28;94217;-75
2021/12/10 07:16:21;;;;;;;7.25;4.65;;;;;;;;;;4999754;28;94189;-75
2021/12/10 07:18:48;;;;;;;17.70;5.13;;;;;;;;;;4994570;28;96672;-73
2021/12/10 07:21:15;;;;;;;6.32;4.40;;;;;;;;;;5001635;28;94309;-76
2021/12/10 07:23:42;;;;;;;8.95;4.38;;;;;;;;;;4998933;28;92672;-74
2021/12/10 07:26:12;;;;;;;12.20;5.25;;;;;;;;;;4993774;28;94508;-75
2021/12/10 07:28:38;;;;;;;13.15;6.30;;;;;;;;;;5014593;28;92462;-75
2021/12/10 07:31:07;;;;;;;7.35;5.13;;;;;;;;;;4993181;28;94195;-76
2021/12/10 07:33:34;;;;;;;15.50;4.40;;;;;;;;;;5006740;28;94945;-76
2021/12/10 07:36:00;;;;;;;13.70;5.07;;;;;;;;;;4995981;28;93459;-76
2021/12/10 07:38:27;;;;;;;11.60;5.55;;;;;;;;;;5000203;28;92921;-75
2021/12/10 07:40:53;;;;;;;10.00;4.65;;;;;;;;;;4991735;28;95185;-76
2021/12/10 07:43:20;;;;;;;6.85;4.53;;;;;;;;;;5003420;28;95583;-76
2021/12/10 07:45:49;;;;;;;8.45;4.28;;;;;;;;;;5000076;28;95308;-76
2021/12/10 07:48:19;;;;;;;14.15;4.50;;;;;;;;;;5007123;28;94201;-75
2021/12/10 07:50:52;;;;;;;14.57;5.32;;;;;;;;;;5012553;28;93956;-76
2021/12/10 07:53:20;;;;;;;9.77;5.13;;;;;;;;;;4999381;28;93762;-75
2021/12/10 07:55:47;;;;;;;14.25;4.78;;;;;;;;;;4996882;28;92754;-76
2021/12/10 07:58:14;;;;;;;11.00;4.57;;;;;;;;;;5014646;28;93856;-75
2021/12/10 08:00:42;;;;;;;11.30;4.10;;;;;;;;;;5013274;28;94529;-75
2021/12/10 08:03:09;;;;;;;6.70;4.38;;;;;;;;;;5001215;28;92616;-75
2021/12/10 08:05:35;;;;;;;6.20;3.95;;;;;;;;;;5005213;28;93857;-75
2021/12/10 08:08:02;;;;;;;7.20;4.00;;;;;;;;;;5005701;28;96548;-75
2021/12/10 08:10:29;;;;;;;8.10;4.38;;;;;;;;;;5014762;28;93743;-76
2021/12/10 08:12:55;;;;;;;5.57;3.83;;;;;;;;;;5013209;28;94133;-76
2021/12/10 08:15:22;;;;;;;9.57;4.45;;;;;;;;;;5011137;28;93086;-76
2021/12/10 08:17:48;;;;;;;11.43;4.03;;;;;;;;;;5007379;28;92865;-75
2021/12/10 08:20:19;;;;;;;11.45;3.90;;;;;;;;;;4997857;28;93754;-76
2021/12/10 08:22:46;;;;;;;7.55;4.50;;;;;;;;;;5014014;28;92525;-76
2021/12/10 08:25:13;;;;;;;15.93;4.70;;;;;;;;;;4996796;28;93918;-76
2021/12/10 08:27:39;;;;;;;12.23;3.92;;;;;;;;;;5007479;28;94394;-75
2021/12/10 08:30:07;;;;;;;12.18;3.97;;;;;;;;;;5009419;28;92958;-76
2021/12/10 08:32:33;;;;;;;9.10;3.67;;;;;;;;;;5015630;28;95462;-76
2021/12/10 08:35:01;;;;;;;10.27;3.45;;;;;;;;;;4993487;28;92997;-76
2021/12/10 08:37:28;;;;;;;8.88;4.00;;;;;;;;;;5006233;28;94332;-76
2021/12/10 08:39:54;;;;;;;15.27;4.40;;;;;;;;;;5008549;28;94505;-75
2021/12/10 08:42:20;;;;;;;19.92;3.92;;;;;;;;;;4993710;28;92448;-74
2021/12/10 08:44:47;;;;;;;7.25;4.43;;;;;;;;;;4993752;28;93350;-75
2021/12/10 08:47:15;;;;;;;5.10;3.53;;;;;;;;;;5011195;27;94010;-77
2021/12/10 08:49:41;;;;;;;15.50;6.22;;;;;;;;;;5000972;28;91804;-75
2021/12/10 08:52:10;;;;;;;11.90;4.63;;;;;;;;;;4999240;28;93607;-76
2021/12/10 08:54:37;;;;;;;11.18;3.65;;;;;;;;;;5004651;28;94041;-76
2021/12/10 08:57:08;;;;;;;16.23;3.80;;;;;;;;;;4985009;28;94941;-75
2021/12/10 08:59:36;;;;;;;11.55;4.40;;;;;;;;;;4998655;28;93710;-74
2021/12/10 09:02:04;;;;;;;12.43;4.82;;;;;;;;;;5011781;28;92514;-74
2021/12/10 09:04:31;;;;;;;14.57;5.38;;;;;;;;;;5008751;28;94243;-75
2021/12/10 09:07:02;;;;;;;12.45;4.40;;;;;;;;;;4992247;28;94433;-75
2021/12/10 09:09:30;;;;;;;12.90;4.82;;;;;;;;;;5003242;28;93503;-75
2021/12/10 09:11:58;;;;;;;10.23;5.55;;;;;;;;;;4993709;28;94024;-75
2021/12/10 09:14:28;;;;;;;11.63;4.50;;;;;;;;;;4992144;28;93236;-75
2021/12/10 09:16:56;;;;;;;9.38;4.32;;;;;;;;;;4988010;28;94153;-75
2021/12/10 09:19:23;;;;;;;10.82;4.70;;;;;;;;;;4996511;28;96208;-75
2021/12/10 09:21:50;;;;;;;9.63;4.68;;;;;;;;;;4994987;28;97956;-75
2021/12/10 09:24:18;;;;;;;10.60;4.97;;;;;;;;;;4990726;28;95729;-75
2021/12/10 09:26:45;;;;;;;10.38;4.65;;;;;;;;;;4989373;28;94222;-74
2021/12/10 09:29:13;;;;;;;10.88;4.78;;;;;;;;;;5000914;28;92973;-74
2021/12/10 09:31:42;;;;;;;11.40;4.68;;;;;;;;;;5004733;28;93186;-74
2021/12/10 09:34:10;;;;;;;9.02;5.07;;;;;;;;;;4988938;28;93828;-75
2021/12/10 09:36:37;;;;;;;11.38;5.40;;;;;;;;;;4983006;28;93019;-74
2021/12/10 09:39:05;;;;;;;11.32;4.43;;;;;;;;;;4992707;28;93465;-74
2021/12/10 09:41:31;;;;;;;7.60;4.32;;;;;;;;;;4989943;28;94116;-75
2021/12/10 09:43:58;;;;;;;15.52;4.75;;;;;;;;;;5008472;28;94625;-75
2021/12/10 09:46:24;;;;;;;13.23;5.07;;;;;;;;;;4990823;28;95946;-74
2021/12/10 09:48:51;;;;;;;22.55;6.15;;;;;;;;;;5009705;28;92549;-73
2021/12/10 09:51:21;;;;;;;9.50;4.30;;;;;;;;;;5011787;28;94457;-74
2021/12/10 09:53:49;;;;;;;18.10;4.65;;;;;;;;;;4979772;28;94172;-75
2021/12/10 09:56:16;;;;;;;10.82;4.95;;;;;;;;;;4979564;28;93238;-76
2021/12/10 09:58:47;;;;;;;11.13;4.70;;;;;;;;;;4991550;28;93862;-75
2021/12/10 10:01:19;;;;;;;12.10;5.32;;;;;;;;;;4998647;28;92458;-75
2021/12/10 10:03:46;;;;;;;8.45;4.63;;;;;;;;;;4993514;28;93404;-75
2021/12/10 10:06:14;;;;;;;9.70;4.35;;;;;;;;;;5009800;28;94658;-75
2021/12/10 10:08:41;;;;;;;14.52;5.20;;;;;;;;;;4999062;28;92824;-76
2021/12/10 10:11:10;;;;;;;16.67;5.28;;;;;;;;;;4983547;28;94875;-75
2021/12/10 10:13:42;;;;;;;11.40;5.32;;;;;;;;;;4998130;28;94351;-75
2021/12/10 10:16:10;;;;;;;13.43;5.20;;;;;;;;;;4984483;28;92553;-76
2021/12/10 10:18:37;;;;;;;9.65;5.38;;;;;;;;;;4994968;28;94135;-76
2021/12/10 10:21:06;;;;;;;12.30;5.25;;;;;;;;;;4995515;28;94123;-76
2021/12/10 10:23:34;;;;;;;17.00;5.07;;;;;;;;;;5012076;28;93174;-76
2021/12/10 10:26:03;;;;;;;8.63;4.95;;;;;;;;;;4998505;28;92998;-76
2021/12/10 10:28:30;;;;;;;13.07;5.03;;;;;;;;;;4993960;28;92023;-75
2021/12/10 10:31:01;;;;;;;15.65;5.32;;;;;;;;;;4982438;28;92613;-76
2021/12/10 10:33:30;;;;;;;16.95;5.80;;;;;;;;;;4975571;28;93708;-75
2021/12/10 10:35:57;;;;;;;15.98;5.20;;;;;;;;;;4983899;28;94973;-74
2021/12/10 10:38:24;;;;;;;11.70;5.07;;;;;;;;;;4979279;28;95747;-74
2021/12/10 10:41:02;;;;;;;9.85;5.07;;;;;;;;;;4986523;28;94333;-75
2021/12/10 10:43:29;;;;;;;12.23;4.75;;;;;;;;;;4996509;28;92622;-75
2021/12/10 10:45:56;;;;;;;13.55;5.28;;;;;;;;;;4982016;28;93171;-75
2021/12/10 10:48:23;;;;;;;10.48;4.60;;;;;;;;;;4985376;28;92483;-75
2021/12/10 10:50:50;;;;;;;11.20;4.82;;;;;;;;;;4996173;28;95056;-75
2021/12/10 10:53:18;;;;;;;14.55;5.65;;;;;;;;;;4975852;28;92605;-75
2021/12/10 10:55:57;;;;;;;11.52;5.32;;;;;;;;;;4975940;28;92939;-75
2021/12/10 10:58:25;;;;;;;13.55;4.68;;;;;;;;;;4983127;28;92906;-74
2021/12/10 11:01:00;;;;;;;18.23;5.25;;;;;;;;;;4993757;28;96732;-74
2021/12/10 11:03:57;;;;;;;11.80;4.63;;;;;;;;;;5000214;28;92787;-75
2021/12/10 11:06:30;;;;;;;;;;;;;;;;;;4978802;28;93425;-75
2021/12/10 11:09:06;;;;;;;9.60;4.45;;;;;;;;;;4974741;28;119118;-75
2021/12/10 11:11:35;;;;;;;12.40;4.07;;;;;;;;;;4993228;28;92509;-76
2021/12/10 11:14:05;;;;;;;9.57;4.65;;;;;;;;;;4975017;28;94252;-75
2021/12/10 11:16:32;;;;;;;20.05;5.75;;;;;;;;;;4975270;28;93220;-75
2021/12/10 11:19:18;;;;;;;11.23;5.13;;;;;;;;;;4996207;28;94181;-75
2021/12/10 11:21:48;;;;;;;13.13;5.07;;;;;;;;;;5011174;28;95140;-75
2021/12/10 11:24:17;;;;;;;11.52;4.35;;;;;;;;;;5002465;28;94629;-76
2021/12/10 11:26:45;;;;;;;12.52;5.28;;;;;;;;;;4994127;28;95148;-75
2021/12/10 11:29:27;;;;;;;11.85;4.22;;;;;;;;;;4998713;28;92626;-75
2021/12/10 11:31:58;;;;;;;7.45;5.05;;;;;;;;;;5009211;28;94121;-75
2021/12/10 11:34:38;;;;;;;6.13;3.85;;;;;;;;;;4993433;28;94096;-75
2021/12/10 11:37:05;;;;;;;12.23;4.63;;;;;;;;;;5011704;28;92924;-75
2021/12/10 11:40:00;;;;;;;11.02;4.60;;;;;;;;;;5014390;28;94000;-76
2021/12/10 11:42:44;;;;;;;11.30;5.00;;;;;;;;;;5001930;28;93544;-76
2021/12/10 11:45:40;;;;;;;19.45;5.80;;;;;;;;;;5000671;28;93002;-76
2021/12/10 11:48:11;;;;;;;12.45;3.97;;;;;;;;;;5001358;28;93556;-75
2021/12/10 11:50:43;;;;;;;9.85;4.07;;;;;;;;;;5005398;28;95210;-74
2021/12/10 11:53:14;;;;;;;8.60;4.57;;;;;;;;;;5014833;28;94897;-75
2021/12/10 11:55:53;;;;;;;9.27;3.85;;;;;;;;;;5010917;28;94273;-73
2021/12/10 11:58:19;;;;;;;7.93;3.70;;;;;;;;;;5013637;28;93090;-76
2021/12/10 12:00:46;;;;;;;6.32;4.00;;;;;;;;;;4995867;28;93896;-76
2021/12/10 12:03:13;;;;;;;12.27;3.60;;;;;;;;;;5013728;28;93536;-74
2021/12/10 12:05:41;;;;;;;9.15;4.05;;;;;;;;;;4998303;28;93949;-74
2021/12/10 12:08:13;;;;;;;7.07;3.42;;;;;;;;;;4987995;27;92739;-74
2021/12/10 12:10:42;;;;;;;14.93;4.03;;;;;;;;;;4976033;28;92444;-74
2021/12/10 12:15:48;;;;;;;7.28;4.20;;;;;;;;;;4984469;28;93683;-75
2021/12/10 12:18:37;;;;;;;8.90;4.03;;;;;;;;;;4999627;28;96610;-75
2021/12/10 12:26:41;;;;;;;9.27;3.53;;;;;;;;;;5005661;28;92434;-75
2021/12/10 12:29:33;;;;;;;7.90;3.65;;;;;;;;;;5000983;28;94805;-75
2021/12/10 12:32:00;;;;;;;8.32;3.42;;;;;;;;;;4986304;28;93794;-75
2021/12/10 12:34:27;;;;;;;11.77;4.47;;;;;;;;;;4989870;28;95350;-75
2021/12/10 12:37:06;;;;;;;8.88;4.03;;;;;;;;;;5014776;28;94632;-74
2021/12/10 12:39:57;;;;;;;11.13;4.65;;;;;;;;;;4998368;28;94080;-75
2021/12/10 12:42:24;;;;;;;10.35;3.97;;;;;;;;;;4991474;27;93669;-75
2021/12/10 12:44:52;;;;;;;6.72;3.45;;;;;;;;;;4971988;28;96806;-75
2021/12/10 12:47:40;;;;;;;7.90;3.47;;;;;;;;;;4973634;28;92575;-75
2021/12/10 12:50:13;;;;;;;9.10;2.67;;;;;;;;;;4973987;28;94324;-75
2021/12/10 12:52:41;;;;;;;13.05;3.50;;;;;;;;;;4973188;28;94728;-76
2021/12/10 12:55:26;;;;;;;7.68;3.20;;;;;;;;;;4973388;28;92488;-75
2021/12/10 12:58:00;;;;;;;14.07;3.35;;;;;;;;;;4973712;28;93913;-76
2021/12/10 13:01:04;;;;;;;10.27;3.60;;;;;;;;;;4976069;28;94134;-74
2021/12/10 13:03:34;;;;;;;7.25;3.78;;;;;;;;;;4983734;28;93756;-76
2021/12/10 13:06:20;;;;;;;15.90;3.88;;;;;;;;;;4993306;28;93461;-75
2021/12/10 13:09:11;;;;;;;7.47;3.60;;;;;;;;;;4993462;28;92509;-75
2021/12/10 13:11:48;;;;;;;10.60;3.28;;;;;;;;;;4991746;28;94983;-75
2021/12/10 13:14:18;;;;;;;10.77;3.28;;;;;;;;;;4992200;28;93496;-74
2021/12/10 13:16:47;;;;;;;9.60;4.05;;;;;;;;;;4993060;28;92522;-74
2021/12/10 13:19:16;;;;;;;6.47;2.90;;;;;;;;;;4992850;28;93867;-73
2021/12/10 13:21:57;;;;;;;9.18;3.40;;;;;;;;;;4992535;28;94229;-75
2021/12/10 13:24:24;;;;;;;15.00;3.70;;;;;;;;;;4995249;28;92544;-74
2021/12/10 13:26:50;;;;;;;9.35;3.40;;;;;;;;;;4994270;28;94412;-74
2021/12/10 13:29:17;;;;;;;11.48;3.63;;;;;;;;;;4999386;28;91842;-74
2021/12/10 13:31:44;;;;;;;4.43;2.88;;;;;;;;;;5013222;28;92452;-74
2021/12/10 13:34:11;;;;;;;10.48;3.72;;;;;;;;;;5005259;28;93456;-74
2021/12/10 13:36:41;;;;;;;7.55;3.83;;;;;;;;;;4989858;28;97903;-74
2021/12/10 13:39:10;;;;;;;12.48;4.97;;;;;;;;;;5007774;28;95521;-74
2021/12/10 13:41:37;;;;;;;7.18;4.07;;;;;;;;;;4993454;28;93844;-73
2021/12/10 13:44:08;;;;;;;7.20;3.53;;;;;;;;;;4987911;28;94371;-73
2021/12/10 13:46:46;;;;;;;8.38;4.20;;;;;;;;;;5006424;28;93273;-74
2021/12/10 13:49:21;;;;;;;10.63;3.78;;;;;;;;;;4983939;28;92557;-74
2021/12/10 13:51:50;;;;;;;14.60;3.60;;;;;;;;;;4978353;28;93322;-73
2021/12/10 13:54:21;;;;;;;9.05;3.78;;;;;;;;;;4997464;27;94040;-74
2021/12/10 13:56:50;;;;;;;6.15;3.22;;;;;;;;;;5010248;27;92563;-73
2021/12/10 13:59:20;;;;;;;12.45;3.30;;;;;;;;;;4985409;28;93904;-74
2021/12/10 14:01:49;;;;;;;11.75;4.05;;;;;;;;;;4976848;28;96561;-73
2021/12/10 14:04:20;;;;;;;8.75;3.38;;;;;;;;;;4980376;28;94162;-74
2021/12/10 14:06:48;;;;;;;8.95;3.05;;;;;;;;;;4985348;28;93916;-74
2021/12/10 14:09:20;;;;;;;9.70;3.50;;;;;;;;;;4998175;28;92780;-74
2021/12/10 14:12:06;;;;;;;8.17;3.70;;;;;;;;;;4997935;28;94413;-74
2021/12/10 14:14:35;;;;;;;9.05;3.50;;;;;;;;;;4987678;28;95543;-74
2021/12/10 14:17:03;;;;;;;9.90;3.53;;;;;;;;;;5000316;28;92912;-74
2021/12/10 14:19:51;;;;;;;4.45;3.58;;;;;;;;;;5012886;28;93834;-73
2021/12/10 14:22:58;;;;;;;9.98;3.75;;;;;;;;;;5004889;28;94184;-73
2021/12/10 14:25:52;;;;;;;12.50;4.18;;;;;;;;;;5010086;28;92602;-74
2021/12/10 14:28:49;;;;;;;5.78;3.40;;;;;;;;;;4983781;28;95369;-73
2021/12/10 14:31:45;;;;;;;8.68;3.40;;;;;;;;;;4975405;28;93343;-74
2021/12/10 14:34:18;;;;;;;7.43;3.40;;;;;;;;;;4982515;28;94075;-74
2021/12/10 14:36:57;;;;;;;6.13;3.58;;;;;;;;;;4996789;28;94962;-74
2021/12/10 14:39:25;;;;;;;7.63;3.38;;;;;;;;;;5010630;28;92811;-74
2021/12/10 14:42:12;;;;;;;8.25;3.90;;;;;;;;;;5012152;28;94248;-73
2021/12/10 14:44:41;;;;;;;11.43;4.10;;;;;;;;;;5008113;28;94360;-73
2021/12/10 14:47:19;;;;;;;7.95;4.10;;;;;;;;;;5011601;28;91812;-73
2021/12/10 14:50:07;;;;;;;10.25;3.42;;;;;;;;;;5010334;28;93234;-73
2021/12/10 14:52:53;;;;;;;10.55;4.32;;;;;;;;;;4995034;28;94072;-74
2021/12/10 14:55:40;;;;;;;8.95;3.63;;;;;;;;;;4993962;28;94826;-74
2021/12/10 14:58:27;;;;;;;10.77;4.22;;;;;;;;;;4996120;28;93846;-74
2021/12/10 15:01:15;;;;;;;9.70;4.03;;;;;;;;;;4994799;28;93066;-74
2021/12/10 15:04:06;;;;;;;6.72;3.95;;;;;;;;;;4989568;28;93102;-74
2021/12/10 15:06:54;;;;;;;14.75;4.30;;;;;;;;;;4982298;28;94710;-74